Time;durP1;ratioP1;P1;durP2;ratioP2;P2;SDS_P1;SDS_P2;PMS_P1;PMS_P2;Temp;Humidity;BMP_temperature;BMP_pressure;BME280_temperature;BME280_humidity;BME280_pressure;Samples;Min_cycle;Max_cycle;Signal;HPM_P1;HPM_P2
2021/07/22 00:00:59;;;;;;;4.90;2.70;;;;;;;;;;4996817;28;20083;-76
2021/07/22 00:03:24;;;;;;;5.27;3.03;;;;;;;;;;4996912;28;20077;-76
2021/07/22 00:05:49;;;;;;;6.90;3.80;;;;;;;;;;4995658;28;20034;-76
2021/07/22 00:08:15;;;;;;;6.27;3.17;;;;;;;;;;4978764;28;20072;-76
2021/07/22 00:10:40;;;;;;;5.77;3.20;;;;;;;;;;4979300;28;20257;-76
2021/07/22 00:13:06;;;;;;;5.73;2.93;;;;;;;;;;5008849;28;20180;-76
2021/07/22 00:15:31;;;;;;;5.95;3.30;;;;;;;;;;5029599;28;20029;-76
2021/07/22 00:17:57;;;;;;;5.93;3.10;;;;;;;;;;5013303;28;20038;-76
2021/07/22 00:20:22;;;;;;;6.50;3.30;;;;;;;;;;5031173;28;20113;-76
2021/07/22 00:22:47;;;;;;;5.37;2.90;;;;;;;;;;5005586;28;20109;-76
2021/07/22 00:25:13;;;;;;;5.50;2.90;;;;;;;;;;5016211;28;20054;-76
2021/07/22 00:27:38;;;;;;;7.00;3.27;;;;;;;;;;5015516;28;20104;-76
2021/07/22 00:30:04;;;;;;;5.40;2.90;;;;;;;;;;4996480;28;20029;-76
2021/07/22 00:32:29;;;;;;;5.90;3.25;;;;;;;;;;4999369;28;20038;-76
2021/07/22 00:34:55;;;;;;;5.70;3.20;;;;;;;;;;5014902;28;20065;-76
2021/07/22 00:37:20;;;;;;;6.73;3.27;;;;;;;;;;4998482;28;20069;-76
2021/07/22 00:39:45;;;;;;;6.00;3.07;;;;;;;;;;4995154;28;20117;-76
2021/07/22 00:42:11;;;;;;;4.97;2.70;;;;;;;;;;4996621;28;20030;-76
2021/07/22 00:44:36;;;;;;;5.40;2.87;;;;;;;;;;4994881;28;20053;-76
2021/07/22 00:47:01;;;;;;;6.37;3.40;;;;;;;;;;4994639;28;20117;-76
2021/07/22 00:49:27;;;;;;;5.63;3.10;;;;;;;;;;4996096;28;20029;-76
2021/07/22 00:51:52;;;;;;;6.93;3.53;;;;;;;;;;4994780;28;20175;-76
2021/07/22 00:54:19;;;;;;;4.63;2.90;;;;;;;;;;5014359;28;20119;-76
2021/07/22 00:56:44;;;;;;;4.35;2.80;;;;;;;;;;4999787;28;20543;-76
2021/07/22 00:59:09;;;;;;;5.63;3.03;;;;;;;;;;4996355;28;20038;-76
2021/07/22 01:01:35;;;;;;;6.20;3.17;;;;;;;;;;5005361;28;20445;-76
2021/07/22 01:04:00;;;;;;;5.77;3.23;;;;;;;;;;5030710;28;20065;-76
2021/07/22 01:06:25;;;;;;;6.27;3.27;;;;;;;;;;5014368;28;20070;-76
2021/07/22 01:08:51;;;;;;;5.50;3.07;;;;;;;;;;4994169;28;20128;-76
2021/07/22 01:11:16;;;;;;;5.80;3.20;;;;;;;;;;4995126;28;20033;-75
2021/07/22 01:13:42;;;;;;;6.00;3.30;;;;;;;;;;5010542;28;20073;-76
2021/07/22 01:16:07;;;;;;;6.33;3.07;;;;;;;;;;4994363;28;20037;-76
2021/07/22 01:18:32;;;;;;;6.70;3.20;;;;;;;;;;4993689;28;20033;-76
2021/07/22 01:20:58;;;;;;;5.80;3.30;;;;;;;;;;4995386;28;20161;-76
2021/07/22 01:23:23;;;;;;;5.90;3.07;;;;;;;;;;5002881;28;20029;-76
2021/07/22 01:25:48;;;;;;;7.30;3.20;;;;;;;;;;5025951;28;20125;-76
2021/07/22 01:28:14;;;;;;;5.27;3.20;;;;;;;;;;4994225;28;20121;-76
2021/07/22 01:30:39;;;;;;;5.60;3.17;;;;;;;;;;4994942;28;20030;-76
2021/07/22 01:33:05;;;;;;;5.77;3.27;;;;;;;;;;4994035;28;20049;-75
2021/07/22 01:35:30;;;;;;;6.07;3.23;;;;;;;;;;5025138;28;20102;-76
2021/07/22 01:37:56;;;;;;;6.07;3.10;;;;;;;;;;4996597;28;20125;-76
2021/07/22 01:40:21;;;;;;;5.90;3.23;;;;;;;;;;4995106;28;20058;-76
2021/07/22 01:42:46;;;;;;;5.57;3.17;;;;;;;;;;4993714;28;20481;-76
2021/07/22 01:45:12;;;;;;;7.23;3.33;;;;;;;;;;5009869;28;20036;-76
2021/07/22 01:47:37;;;;;;;6.10;3.30;;;;;;;;;;4993457;28;20032;-76
2021/07/22 01:50:03;;;;;;;7.37;3.43;;;;;;;;;;5003579;28;20030;-76
2021/07/22 01:52:28;;;;;;;5.67;3.33;;;;;;;;;;4993773;28;20072;-76
2021/07/22 01:54:54;;;;;;;5.37;2.97;;;;;;;;;;4993269;28;20113;-76
2021/07/22 01:57:19;;;;;;;5.00;2.90;;;;;;;;;;5009481;28;20065;-76
2021/07/22 01:59:44;;;;;;;5.73;3.00;;;;;;;;;;4977288;28;20564;-76
2021/07/22 02:02:10;;;;;;;6.10;3.10;;;;;;;;;;4993544;28;20511;-76
2021/07/22 02:04:37;;;;;;;5.83;3.07;;;;;;;;;;5013327;28;20029;-76
2021/07/22 02:07:02;;;;;;;6.80;3.28;;;;;;;;;;4993168;28;20327;-76
2021/07/22 02:09:27;;;;;;;5.93;3.27;;;;;;;;;;4993170;28;20034;-76
2021/07/22 02:11:54;;;;;;;6.20;3.00;;;;;;;;;;4993239;28;20018;-76
2021/07/22 02:14:19;;;;;;;;;;;;;;;;;;4993886;28;20030;-76
2021/07/22 02:16:45;;;;;;;5.28;3.00;;;;;;;;;;5009474;28;20395;-76
2021/07/22 02:19:10;;;;;;;5.20;2.93;;;;;;;;;;5007553;28;20022;-76
2021/07/22 02:21:42;;;;;;;5.67;3.00;;;;;;;;;;5002402;28;20022;-76
2021/07/22 02:24:07;;;;;;;5.40;3.05;;;;;;;;;;5003716;28;20038;-76
2021/07/22 02:26:33;;;;;;;6.07;3.13;;;;;;;;;;4993130;28;20022;-76
2021/07/22 02:28:59;;;;;;;5.90;3.15;;;;;;;;;;4995046;28;20477;-76
2021/07/22 02:31:24;;;;;;;6.05;3.00;;;;;;;;;;5017346;28;20514;-76
2021/07/22 02:33:50;;;;;;;6.30;3.20;;;;;;;;;;4980989;28;20034;-76
2021/07/22 02:36:15;;;;;;;6.87;3.50;;;;;;;;;;4992964;28;20062;-75
2021/07/22 02:38:40;;;;;;;5.57;3.03;;;;;;;;;;4992731;28;20057;-76
2021/07/22 02:41:06;;;;;;;6.57;3.00;;;;;;;;;;5009339;28;20149;-76
2021/07/22 02:43:32;;;;;;;6.33;3.60;;;;;;;;;;4993894;28;20137;-76
2021/07/22 02:45:58;;;;;;;5.82;2.95;;;;;;;;;;4992925;28;20037;-76
2021/07/22 02:48:23;;;;;;;5.50;2.97;;;;;;;;;;5007764;28;20096;-76
2021/07/22 02:50:48;;;;;;;5.70;2.80;;;;;;;;;;5028820;28;20079;-76
2021/07/22 02:53:14;;;;;;;7.27;3.03;;;;;;;;;;4998565;28;20069;-76
2021/07/22 02:55:39;;;;;;;5.30;2.70;;;;;;;;;;4994125;28;20057;-76
2021/07/22 02:58:07;;;;;;;6.63;3.00;;;;;;;;;;4984367;28;20125;-76
2021/07/22 03:00:32;;;;;;;5.93;3.15;;;;;;;;;;5010364;28;20074;-76
2021/07/22 03:03:01;;;;;;;5.60;2.93;;;;;;;;;;4995335;28;20022;-76
2021/07/22 03:05:28;;;;;;;5.82;3.50;;;;;;;;;;4992578;28;20027;-76
2021/07/22 03:07:55;;;;;;;7.22;3.10;;;;;;;;;;4992425;28;20026;-76
2021/07/22 03:10:21;;;;;;;6.10;3.25;;;;;;;;;;5008606;28;20103;-76
2021/07/22 03:12:46;;;;;;;6.53;3.17;;;;;;;;;;5007571;28;20113;-76
2021/07/22 03:15:11;;;;;;;4.83;2.80;;;;;;;;;;5013302;28;20116;-76
2021/07/22 03:17:36;;;;;;;6.07;2.80;;;;;;;;;;5004561;28;20109;-76
2021/07/22 03:20:02;;;;;;;6.53;3.40;;;;;;;;;;4996680;28;20050;-76
2021/07/22 03:22:27;;;;;;;5.63;3.10;;;;;;;;;;5008105;28;20159;-76
2021/07/22 03:24:53;;;;;;;5.40;3.13;;;;;;;;;;5012343;28;20105;-76
2021/07/22 03:27:18;;;;;;;5.83;2.97;;;;;;;;;;4996731;28;20565;-76
2021/07/22 03:29:44;;;;;;;5.60;3.10;;;;;;;;;;5012359;28;20025;-76
2021/07/22 03:32:09;;;;;;;6.07;3.10;;;;;;;;;;4996358;28;20550;-75
2021/07/22 03:34:35;;;;;;;6.27;3.17;;;;;;;;;;4979991;28;20466;-77
2021/07/22 03:37:01;;;;;;;6.67;3.17;;;;;;;;;;4998587;28;20028;-76
2021/07/22 03:39:28;;;;;;;5.80;2.83;;;;;;;;;;4996995;28;20136;-76
2021/07/22 03:41:53;;;;;;;6.57;3.00;;;;;;;;;;5012762;28;20029;-76
2021/07/22 03:44:18;;;;;;;5.87;3.13;;;;;;;;;;5012644;28;20030;-76
2021/07/22 03:46:44;;;;;;;5.27;2.80;;;;;;;;;;5015848;28;20496;-76
2021/07/22 03:49:09;;;;;;;6.40;3.30;;;;;;;;;;5011446;28;20161;-76
2021/07/22 03:51:35;;;;;;;6.20;3.07;;;;;;;;;;4997491;28;20538;-76
2021/07/22 03:54:00;;;;;;;5.57;2.97;;;;;;;;;;4979533;28;20030;-76
2021/07/22 03:56:26;;;;;;;5.17;2.87;;;;;;;;;;4996013;28;20528;-76
2021/07/22 03:58:54;;;;;;;4.80;2.67;;;;;;;;;;4979083;28;20108;-76
2021/07/22 04:01:19;;;;;;;5.97;3.00;;;;;;;;;;4979534;28;20023;-76
2021/07/22 04:03:45;;;;;;;7.53;3.47;;;;;;;;;;4998017;28;20438;-76
2021/07/22 04:06:11;;;;;;;6.00;3.20;;;;;;;;;;5012057;28;20161;-76
2021/07/22 04:08:36;;;;;;;5.10;2.50;;;;;;;;;;4995615;28;20033;-76
2021/07/22 04:11:02;;;;;;;5.73;2.90;;;;;;;;;;4995078;28;20393;-76
2021/07/22 04:13:27;;;;;;;5.60;3.00;;;;;;;;;;4980210;28;20031;-76
2021/07/22 04:15:53;;;;;;;5.63;3.10;;;;;;;;;;5012497;28;20053;-76
2021/07/22 04:18:18;;;;;;;6.07;2.70;;;;;;;;;;5015015;28;20160;-76
2021/07/22 04:20:43;;;;;;;5.43;2.80;;;;;;;;;;5016134;28;20112;-76
2021/07/22 04:23:08;;;;;;;5.67;2.90;;;;;;;;;;5012497;28;20108;-76
2021/07/22 04:25:34;;;;;;;5.10;2.70;;;;;;;;;;5015319;28;20076;-76
2021/07/22 04:27:59;;;;;;;4.77;2.80;;;;;;;;;;5028088;28;20109;-76
2021/07/22 04:30:25;;;;;;;6.30;3.00;;;;;;;;;;5028232;28;20452;-76
2021/07/22 04:32:51;;;;;;;5.97;2.97;;;;;;;;;;4998020;28;20116;-76
2021/07/22 04:35:16;;;;;;;;;;;;;;;;;;5031559;28;20029;-76
2021/07/22 04:37:42;;;;;;;5.83;3.00;;;;;;;;;;5012558;28;19914;-76
2021/07/22 04:40:07;;;;;;;5.73;2.80;;;;;;;;;;4994792;28;20105;-76
2021/07/22 04:42:33;;;;;;;6.13;2.83;;;;;;;;;;4994463;28;20038;-76
2021/07/22 04:44:59;;;;;;;7.03;3.33;;;;;;;;;;4994770;28;20476;-76
2021/07/22 04:47:24;;;;;;;5.30;2.93;;;;;;;;;;4995003;28;20105;-76
2021/07/22 04:49:49;;;;;;;6.93;3.30;;;;;;;;;;4994924;28;20058;-76
2021/07/22 04:52:15;;;;;;;5.33;2.80;;;;;;;;;;5000482;28;20026;-76
2021/07/22 04:54:40;;;;;;;5.33;2.90;;;;;;;;;;5014417;28;20548;-76
2021/07/22 04:57:05;;;;;;;6.43;2.93;;;;;;;;;;5012956;28;20109;-76
2021/07/22 04:59:31;;;;;;;5.97;3.30;;;;;;;;;;5013756;28;20022;-76
2021/07/22 05:01:56;;;;;;;6.63;3.17;;;;;;;;;;4999605;28;20019;-76
2021/07/22 05:04:22;;;;;;;5.70;2.90;;;;;;;;;;4995661;28;20108;-76
2021/07/22 05:06:47;;;;;;;5.13;2.90;;;;;;;;;;5002795;28;20291;-76
2021/07/22 05:09:12;;;;;;;5.43;2.70;;;;;;;;;;5030348;28;20084;-76
2021/07/22 05:11:38;;;;;;;6.13;2.70;;;;;;;;;;5002082;28;20140;-76
2021/07/22 05:14:03;;;;;;;6.60;3.10;;;;;;;;;;5002176;28;20501;-76
2021/07/22 05:16:28;;;;;;;5.20;2.90;;;;;;;;;;4977524;28;20476;-76
2021/07/22 05:18:54;;;;;;;5.53;3.00;;;;;;;;;;4984688;28;20040;-76
2021/07/22 05:21:19;;;;;;;5.23;2.77;;;;;;;;;;5010698;28;20033;-76
2021/07/22 05:23:45;;;;;;;6.43;3.07;;;;;;;;;;4984843;28;20057;-76
2021/07/22 05:26:10;;;;;;;5.30;3.10;;;;;;;;;;4995588;28;20030;-76
2021/07/22 05:28:41;;;;;;;5.90;3.10;;;;;;;;;;5015208;28;20022;-76
2021/07/22 05:31:08;;;;;;;5.78;3.20;;;;;;;;;;4999885;28;20065;-76
2021/07/22 05:33:34;;;;;;;5.43;2.80;;;;;;;;;;5013658;28;20401;-76
2021/07/22 05:36:03;;;;;;;5.85;2.88;;;;;;;;;;4977901;28;20031;-76
2021/07/22 05:38:56;;;;;;;6.28;2.97;;;;;;;;;;5002756;28;20480;-76
2021/07/22 05:41:22;;;;;;;5.82;2.83;;;;;;;;;;5041469;22;20046;-75
2021/07/22 05:43:47;;;;;;;5.27;2.77;;;;;;;;;;5033345;28;20035;-75
2021/07/22 05:46:17;;;;;;;6.63;2.70;;;;;;;;;;5007803;28;20120;-76
2021/07/22 05:48:42;;;;;;;5.95;3.10;;;;;;;;;;5010510;28;20083;-75
2021/07/22 05:51:08;;;;;;;5.53;2.90;;;;;;;;;;5025147;28;20030;-76
2021/07/22 05:53:33;;;;;;;5.13;2.93;;;;;;;;;;5024829;28;20108;-75
2021/07/22 05:55:59;;;;;;;7.00;3.27;;;;;;;;;;5032986;28;20060;-76
2021/07/22 05:58:25;;;;;;;5.82;2.92;;;;;;;;;;5016675;28;20371;-75
2021/07/22 06:00:50;;;;;;;6.10;3.10;;;;;;;;;;5025656;28;20040;-76
2021/07/22 06:03:15;;;;;;;6.07;3.10;;;;;;;;;;5029613;28;20032;-75
2021/07/22 06:05:41;;;;;;;5.40;2.80;;;;;;;;;;5013097;28;20029;-75
2021/07/22 06:08:06;;;;;;;5.57;3.00;;;;;;;;;;5029557;28;20060;-76
2021/07/22 06:10:32;;;;;;;6.30;3.40;;;;;;;;;;5013407;28;20408;-75
2021/07/22 06:12:57;;;;;;;5.50;3.00;;;;;;;;;;5004863;28;20156;-76
2021/07/22 06:15:22;;;;;;;6.53;3.10;;;;;;;;;;4996523;28;20022;-75
2021/07/22 06:17:48;;;;;;;6.93;3.30;;;;;;;;;;5000616;28;20516;-75
2021/07/22 06:20:14;;;;;;;7.00;3.30;;;;;;;;;;5016175;28;20477;-76
2021/07/22 06:22:39;;;;;;;5.70;3.03;;;;;;;;;;5046028;28;20180;-75
2021/07/22 06:25:05;;;;;;;5.33;2.70;;;;;;;;;;5016244;28;20049;-75
2021/07/22 06:27:30;;;;;;;5.75;3.10;;;;;;;;;;5015648;28;20021;-75
2021/07/22 06:29:59;;;;;;;6.90;3.10;;;;;;;;;;5030920;28;20036;-75
2021/07/22 06:32:24;;;;;;;7.47;3.60;;;;;;;;;;5033287;28;20053;-76
2021/07/22 06:34:50;;;;;;;8.87;3.83;;;;;;;;;;5032426;28;20036;-76
2021/07/22 06:37:15;;;;;;;8.07;3.83;;;;;;;;;;5009049;28;20052;-75
2021/07/22 06:39:40;;;;;;;8.90;3.73;;;;;;;;;;5048956;28;20148;-76
2021/07/22 06:42:06;;;;;;;6.67;3.37;;;;;;;;;;5025802;28;20447;-76
2021/07/22 06:44:31;;;;;;;7.00;3.67;;;;;;;;;;5012545;28;20030;-76
2021/07/22 06:46:56;;;;;;;5.73;3.23;;;;;;;;;;5013747;28;20061;-76
2021/07/22 06:49:22;;;;;;;6.63;3.50;;;;;;;;;;5024408;28;20052;-76
2021/07/22 06:51:51;;;;;;;6.80;3.17;;;;;;;;;;5048584;28;20105;-76
2021/07/22 06:54:20;;;;;;;6.35;3.28;;;;;;;;;;5031870;28;20025;-76
2021/07/22 06:56:46;;;;;;;5.65;3.08;;;;;;;;;;5031130;28;20369;-75
2021/07/22 06:59:11;;;;;;;5.50;3.10;;;;;;;;;;5013704;28;20064;-76
2021/07/22 07:01:36;;;;;;;5.87;3.00;;;;;;;;;;5012212;28;20553;-76
2021/07/22 07:04:03;;;;;;;6.93;3.67;;;;;;;;;;5012617;28;20029;-76
2021/07/22 07:06:28;;;;;;;4.82;2.75;;;;;;;;;;5018446;28;20034;-76
2021/07/22 07:08:54;;;;;;;6.88;3.30;;;;;;;;;;5023041;28;20061;-75
2021/07/22 07:11:19;;;;;;;5.53;3.00;;;;;;;;;;5031787;28;20113;-76
2021/07/22 07:13:45;;;;;;;7.23;3.40;;;;;;;;;;5035288;28;20111;-76
2021/07/22 07:16:10;;;;;;;5.87;3.20;;;;;;;;;;5012009;28;20044;-76
2021/07/22 07:18:35;;;;;;;6.73;3.27;;;;;;;;;;5030607;28;20102;-76
2021/07/22 07:21:04;;;;;;;6.40;3.13;;;;;;;;;;5015257;28;20071;-76
2021/07/22 07:23:33;;;;;;;5.43;3.05;;;;;;;;;;5011497;28;20079;-76
2021/07/22 07:25:58;;;;;;;6.13;3.10;;;;;;;;;;5028539;28;20048;-76
2021/07/22 07:28:23;;;;;;;6.47;3.10;;;;;;;;;;5031014;28;20034;-76
2021/07/22 07:30:49;;;;;;;6.50;3.50;;;;;;;;;;4997074;28;20038;-76
2021/07/22 07:33:14;;;;;;;7.20;3.30;;;;;;;;;;5011865;28;20049;-76
2021/07/22 07:35:40;;;;;;;6.80;3.47;;;;;;;;;;5012088;28;20449;-76
2021/07/22 07:38:05;;;;;;;6.90;3.33;;;;;;;;;;5028823;28;20045;-76
2021/07/22 07:40:30;;;;;;;6.97;3.30;;;;;;;;;;5048108;28;20498;-76
2021/07/22 07:42:56;;;;;;;6.70;3.43;;;;;;;;;;5031189;28;20538;-76
2021/07/22 07:45:21;;;;;;;8.37;3.80;;;;;;;;;;5046588;28;20138;-75
2021/07/22 07:47:47;;;;;;;7.20;3.40;;;;;;;;;;5047844;28;20630;-75
2021/07/22 07:50:12;;;;;;;6.13;3.50;;;;;;;;;;5031361;28;20109;-75
2021/07/22 07:52:39;;;;;;;6.47;3.07;;;;;;;;;;5029455;28;20480;-75
2021/07/22 07:55:05;;;;;;;5.95;3.22;;;;;;;;;;5035976;28;20343;-75
2021/07/22 07:57:31;;;;;;;6.45;3.28;;;;;;;;;;5026096;28;20037;-75
2021/07/22 07:59:56;;;;;;;7.40;3.63;;;;;;;;;;5011777;28;20028;-75
2021/07/22 08:02:21;;;;;;;6.87;3.60;;;;;;;;;;5011634;28;20022;-75
2021/07/22 08:04:47;;;;;;;6.73;3.40;;;;;;;;;;5030251;28;20049;-75
2021/07/22 08:07:12;;;;;;;7.03;3.90;;;;;;;;;;5016501;28;20492;-75
2021/07/22 08:09:37;;;;;;;6.80;3.47;;;;;;;;;;5015320;28;20037;-75
2021/07/22 08:12:03;;;;;;;6.17;3.17;;;;;;;;;;4998711;28;20056;-75
2021/07/22 08:14:31;;;;;;;6.68;3.75;;;;;;;;;;5031357;28;20088;-75
2021/07/22 08:16:56;;;;;;;6.18;3.42;;;;;;;;;;5029601;28;20034;-75
2021/07/22 08:19:21;;;;;;;6.10;3.33;;;;;;;;;;5020200;28;20034;-74
2021/07/22 08:21:47;;;;;;;7.37;3.80;;;;;;;;;;5026104;28;20049;-75
2021/07/22 08:24:12;;;;;;;8.50;4.23;;;;;;;;;;5034645;28;20061;-75
2021/07/22 08:26:38;;;;;;;8.87;4.20;;;;;;;;;;5026512;28;20112;-75
2021/07/22 08:29:03;;;;;;;8.23;4.07;;;;;;;;;;5034781;28;20515;-75
2021/07/22 08:31:28;;;;;;;7.13;3.67;;;;;;;;;;5034474;28;20033;-75
2021/07/22 08:33:54;;;;;;;8.30;4.10;;;;;;;;;;5017510;28;20029;-75
2021/07/22 08:36:20;;;;;;;7.65;3.88;;;;;;;;;;5024483;28;20033;-75
2021/07/22 08:38:45;;;;;;;7.10;3.30;;;;;;;;;;5014900;28;20184;-75
2021/07/22 08:41:14;;;;;;;6.43;3.43;;;;;;;;;;5014519;28;20108;-75
2021/07/22 08:43:39;;;;;;;6.70;3.63;;;;;;;;;;5001793;28;20025;-75
2021/07/22 08:46:06;;;;;;;8.40;3.27;;;;;;;;;;5033912;28;20519;-75
2021/07/22 08:48:32;;;;;;;;;;;;;;;;;;5016445;28;20488;-75
2021/07/22 08:50:58;;;;;;;7.95;3.83;;;;;;;;;;5032648;28;19976;-75
2021/07/22 08:53:23;;;;;;;8.27;3.60;;;;;;;;;;5047776;28;20445;-75
2021/07/22 08:55:48;;;;;;;7.37;3.67;;;;;;;;;;5014420;28;20160;-75
2021/07/22 08:58:14;;;;;;;6.60;3.43;;;;;;;;;;5014521;28;20152;-75
2021/07/22 09:00:39;;;;;;;6.43;3.60;;;;;;;;;;5014596;28;20057;-75
2021/07/22 09:03:08;;;;;;;6.63;3.40;;;;;;;;;;5015214;28;20104;-75
2021/07/22 09:05:34;;;;;;;7.55;3.58;;;;;;;;;;5014224;28;20037;-75
2021/07/22 09:07:59;;;;;;;6.70;3.60;;;;;;;;;;5014337;28;20117;-75
2021/07/22 09:10:24;;;;;;;8.23;3.70;;;;;;;;;;5030709;28;20061;-75
2021/07/22 09:12:52;;;;;;;5.73;3.23;;;;;;;;;;5015499;28;20057;-75
2021/07/22 09:15:34;;;;;;;6.95;3.30;;;;;;;;;;5014196;28;20029;-75
2021/07/22 09:17:59;;;;;;;6.38;3.47;;;;;;;;;;5029553;28;20026;-75
2021/07/22 09:20:32;;;;;;;7.20;3.60;;;;;;;;;;5013995;28;20075;-75
2021/07/22 09:23:04;;;;;;;6.40;3.42;;;;;;;;;;5022356;28;20036;-75
2021/07/22 09:25:43;;;;;;;6.78;3.33;;;;;;;;;;5014468;28;20124;-75
2021/07/22 09:28:12;;;;;;;7.30;3.45;;;;;;;;;;5026696;28;20029;-75
2021/07/22 09:30:37;;;;;;;6.95;3.38;;;;;;;;;;5013651;28;20041;-75
2021/07/22 09:33:04;;;;;;;5.60;3.17;;;;;;;;;;5014113;28;20026;-75
2021/07/22 09:35:30;;;;;;;6.15;3.70;;;;;;;;;;5019445;28;20403;-75
2021/07/22 09:37:56;;;;;;;6.23;3.63;;;;;;;;;;5019851;28;20113;-75
2021/07/22 09:40:24;;;;;;;6.53;3.28;;;;;;;;;;5013883;28;20054;-75
2021/07/22 09:42:49;;;;;;;5.65;3.28;;;;;;;;;;5028065;28;20029;-75
2021/07/22 09:45:19;;;;;;;6.70;3.50;;;;;;;;;;5016755;28;20032;-75
2021/07/22 09:47:45;;;;;;;5.70;3.28;;;;;;;;;;5040167;28;20044;-75
2021/07/22 09:50:18;;;;;;;9.00;4.18;;;;;;;;;;5016535;28;20133;-77
2021/07/22 09:52:45;;;;;;;9.68;4.30;;;;;;;;;;5033476;28;20044;-75
2021/07/22 09:55:23;;;;;;;7.47;3.80;;;;;;;;;;5013257;28;20065;-74
2021/07/22 09:57:52;;;;;;;7.32;3.83;;;;;;;;;;5039695;28;20068;-75
2021/07/22 10:00:17;;;;;;;6.70;3.50;;;;;;;;;;5047552;28;20056;-75
2021/07/22 10:02:42;;;;;;;8.07;3.80;;;;;;;;;;5023076;28;20052;-75
2021/07/22 10:05:09;;;;;;;7.27;3.53;;;;;;;;;;5032099;28;20056;-75
2021/07/22 10:07:36;;;;;;;;;;;;;;;;;;5030508;28;20028;-75
2021/07/22 10:10:02;;;;;;;8.27;3.93;;;;;;;;;;5015680;28;19920;-75
2021/07/22 10:12:27;;;;;;;6.63;3.20;;;;;;;;;;5012908;28;20284;-75
2021/07/22 10:14:54;;;;;;;7.00;3.60;;;;;;;;;;5013278;28;20030;-75
2021/07/22 10:17:25;;;;;;;7.22;3.30;;;;;;;;;;5017774;28;20429;-74
2021/07/22 10:19:50;;;;;;;7.03;3.42;;;;;;;;;;5018865;28;20438;-75
2021/07/22 10:22:15;;;;;;;6.47;3.50;;;;;;;;;;4996606;28;20029;-74
2021/07/22 10:24:41;;;;;;;6.67;3.47;;;;;;;;;;5014551;28;20485;-74
2021/07/22 10:27:07;;;;;;;6.63;3.40;;;;;;;;;;5043271;28;20064;-75
2021/07/22 10:29:33;;;;;;;;;;;;;;;;;;5032575;28;20511;-75
2021/07/22 10:31:58;;;;;;;6.72;3.40;;;;;;;;;;5015514;28;19920;-76
2021/07/22 10:34:23;;;;;;;7.40;3.57;;;;;;;;;;5032338;28;20048;-75
2021/07/22 10:36:49;;;;;;;6.40;3.53;;;;;;;;;;5031849;28;20595;-75
2021/07/22 10:39:15;;;;;;;7.03;3.93;;;;;;;;;;5041608;28;20026;-76
2021/07/22 10:41:41;;;;;;;7.03;3.58;;;;;;;;;;5033360;28;20022;-76
2021/07/22 10:44:18;;;;;;;7.28;3.58;;;;;;;;;;5048738;28;20070;-75
2021/07/22 10:47:00;;;;;;;8.27;4.10;;;;;;;;;;5032215;28;20029;-75
2021/07/22 10:49:36;;;;;;;6.13;3.35;;;;;;;;;;5031333;28;20028;-76
2021/07/22 10:52:02;;;;;;;7.63;3.43;;;;;;;;;;5012530;28;20026;-76
2021/07/22 10:54:51;;;;;;;6.67;3.87;;;;;;;;;;5012411;28;20651;-76
2021/07/22 10:57:37;;;;;;;5.80;3.22;;;;;;;;;;5012818;28;20072;-76
2021/07/22 11:00:04;;;;;;;6.10;3.60;;;;;;;;;;4996358;28;20140;-75
2021/07/22 11:02:48;;;;;;;5.68;3.38;;;;;;;;;;5000584;28;20017;-76
2021/07/22 11:05:26;;;;;;;7.78;3.58;;;;;;;;;;5030060;28;20021;-75
2021/07/22 11:08:22;;;;;;;5.82;3.33;;;;;;;;;;5013289;28;20064;-75
2021/07/22 11:10:57;;;;;;;6.80;3.38;;;;;;;;;;5028223;28;20571;-75
2021/07/22 11:13:34;;;;;;;6.70;3.33;;;;;;;;;;5047063;28;20037;-75
2021/07/22 11:16:01;;;;;;;7.20;3.67;;;;;;;;;;5023756;28;20029;-75
2021/07/22 11:18:52;;;;;;;6.35;3.53;;;;;;;;;;5029053;28;20036;-75
2021/07/22 11:21:33;;;;;;;6.35;3.35;;;;;;;;;;5011197;28;20038;-75
2021/07/22 11:24:09;;;;;;;6.55;3.20;;;;;;;;;;5010046;28;20025;-75
2021/07/22 11:26:36;;;;;;;6.72;3.38;;;;;;;;;;5038173;28;20036;-76
2021/07/22 11:29:03;;;;;;;6.13;3.45;;;;;;;;;;4997479;28;20034;-74
2021/07/22 11:31:31;;;;;;;;;;;;;;;;;;5008846;28;20060;-74
2021/07/22 11:34:01;;;;;;;5.00;3.20;;;;;;;;;;5024356;28;19940;-75
2021/07/22 11:36:26;;;;;;;5.82;3.38;;;;;;;;;;5021241;28;20029;-75
2021/07/22 11:38:52;;;;;;;5.37;3.20;;;;;;;;;;5045788;28;20043;-75
2021/07/22 11:41:18;;;;;;;5.63;3.35;;;;;;;;;;5032660;28;20112;-75
2021/07/22 11:43:44;;;;;;;5.45;3.10;;;;;;;;;;5046821;28;20112;-75
2021/07/22 11:46:11;;;;;;;5.70;3.38;;;;;;;;;;5046880;28;20037;-75
2021/07/22 11:48:37;;;;;;;6.03;3.60;;;;;;;;;;5015731;28;20119;-75
2021/07/22 11:51:22;;;;;;;5.43;3.28;;;;;;;;;;5039377;28;20075;-75
2021/07/22 11:53:47;;;;;;;5.93;3.35;;;;;;;;;;5032576;28;20480;-75
2021/07/22 11:56:17;;;;;;;5.77;3.40;;;;;;;;;;5048044;28;20049;-75
2021/07/22 11:58:47;;;;;;;5.57;2.92;;;;;;;;;;5024120;28;20750;-75
2021/07/22 12:01:12;;;;;;;5.82;3.22;;;;;;;;;;5022208;28;20037;-75
2021/07/22 12:03:38;;;;;;;6.63;3.27;;;;;;;;;;4997028;28;20724;-75
2021/07/22 12:06:03;;;;;;;5.47;3.00;;;;;;;;;;5038193;28;20118;-75
2021/07/22 12:08:29;;;;;;;5.70;3.20;;;;;;;;;;5048420;28;20026;-75
2021/07/22 12:13:21;;;;;;;6.13;3.40;;;;;;;;;;4976692;28;20054;-77
2021/07/22 12:15:47;;;;;;;5.47;3.30;;;;;;;;;;4960394;28;20027;-78
2021/07/22 12:18:13;;;;;;;6.67;3.50;;;;;;;;;;4944575;28;20058;-78
2021/07/22 12:20:38;;;;;;;5.03;3.10;;;;;;;;;;4960516;28;20022;-77
2021/07/22 12:23:29;;;;;;;5.37;3.27;;;;;;;;;;4960376;28;20536;-78
2021/07/22 12:26:02;;;;;;;5.25;3.20;;;;;;;;;;4977361;28;20019;-77
2021/07/22 12:28:28;;;;;;;5.93;3.30;;;;;;;;;;4975612;28;20023;-78
2021/07/22 12:30:53;;;;;;;5.60;3.53;;;;;;;;;;4960170;28;20386;-77
2021/07/22 12:33:26;;;;;;;6.33;3.63;;;;;;;;;;4976249;28;20494;-78
2021/07/22 12:35:51;;;;;;;6.47;3.40;;;;;;;;;;4959697;28;20371;-78
2021/07/22 12:38:17;;;;;;;6.07;3.55;;;;;;;;;;4959854;28;20050;-77
2021/07/22 12:40:45;;;;;;;6.30;3.33;;;;;;;;;;4960092;28;20035;-78
2021/07/22 12:43:21;;;;;;;5.88;3.00;;;;;;;;;;4975876;28;20537;-77
2021/07/22 12:45:47;;;;;;;6.55;3.28;;;;;;;;;;4958651;28;20035;-78
2021/07/22 12:48:13;;;;;;;5.63;3.28;;;;;;;;;;4975941;28;20073;-77
2021/07/22 12:50:43;;;;;;;5.60;3.33;;;;;;;;;;4943603;28;20030;-78
2021/07/22 12:53:32;;;;;;;6.32;3.20;;;;;;;;;;4974826;28;20026;-77
2021/07/22 12:56:00;;;;;;;5.93;3.05;;;;;;;;;;4943687;28;20033;-78
2021/07/22 12:58:30;;;;;;;5.55;3.20;;;;;;;;;;4975709;28;20037;-77
2021/07/22 13:01:03;;;;;;;6.00;3.47;;;;;;;;;;4975540;28;20478;-77
2021/07/22 13:03:29;;;;;;;6.43;3.47;;;;;;;;;;4959454;28;20045;-77
2021/07/22 13:05:54;;;;;;;8.00;4.00;;;;;;;;;;4959483;28;20030;-77
2021/07/22 13:08:20;;;;;;;5.63;3.13;;;;;;;;;;4975617;28;20457;-77
2021/07/22 13:10:45;;;;;;;6.10;3.30;;;;;;;;;;4959302;28;20109;-77
2021/07/22 13:13:11;;;;;;;6.07;3.30;;;;;;;;;;4959197;28;20468;-77
2021/07/22 13:15:36;;;;;;;5.73;3.37;;;;;;;;;;4975611;28;20122;-77
2021/07/22 13:18:01;;;;;;;5.47;3.13;;;;;;;;;;4959172;28;20054;-77
2021/07/22 13:20:27;;;;;;;6.33;3.27;;;;;;;;;;4959133;28;20046;-77
2021/07/22 13:22:52;;;;;;;6.20;3.30;;;;;;;;;;4976430;28;20371;-77
2021/07/22 13:25:17;;;;;;;7.20;3.37;;;;;;;;;;4959321;28;20027;-77
2021/07/22 13:27:44;;;;;;;5.70;3.10;;;;;;;;;;4975312;28;20026;-78
2021/07/22 13:30:09;;;;;;;;;;;;;;;;;;4975665;28;20019;-78
2021/07/22 13:32:35;;;;;;;7.65;3.70;;;;;;;;;;4943090;28;19984;-77
2021/07/22 13:35:04;;;;;;;6.07;3.20;;;;;;;;;;4958861;28;20030;-77
2021/07/22 13:37:30;;;;;;;6.45;3.25;;;;;;;;;;4958677;28;20117;-77
2021/07/22 13:39:55;;;;;;;6.60;3.50;;;;;;;;;;4958890;28;20134;-77
2021/07/22 13:42:21;;;;;;;5.77;3.27;;;;;;;;;;4959174;28;20025;-78
2021/07/22 13:44:46;;;;;;;5.63;3.07;;;;;;;;;;4975001;28;20118;-78
2021/07/22 13:47:12;;;;;;;6.87;3.27;;;;;;;;;;4942719;28;20037;-78
2021/07/22 13:49:37;;;;;;;5.73;3.27;;;;;;;;;;4975103;28;20023;-77
2021/07/22 13:52:02;;;;;;;6.07;3.23;;;;;;;;;;4958679;28;20518;-77
2021/07/22 13:54:28;;;;;;;6.57;3.37;;;;;;;;;;4942348;28;20409;-77
2021/07/22 13:56:53;;;;;;;5.77;3.13;;;;;;;;;;4974780;28;20509;-77
2021/07/22 13:59:18;;;;;;;6.87;3.57;;;;;;;;;;4942596;28;20058;-77
2021/07/22 14:01:44;;;;;;;6.37;3.50;;;;;;;;;;4958568;28;20054;-77
2021/07/22 14:04:09;;;;;;;6.33;3.20;;;;;;;;;;4942238;28;20170;-77
2021/07/22 14:06:34;;;;;;;5.33;3.00;;;;;;;;;;4958416;28;20394;-78
2021/07/22 14:09:00;;;;;;;7.27;3.43;;;;;;;;;;4958525;28;20073;-77
2021/07/22 14:11:25;;;;;;;6.33;3.40;;;;;;;;;;4958049;28;20113;-77
2021/07/22 14:13:50;;;;;;;6.47;3.47;;;;;;;;;;4942588;28;20121;-77
2021/07/22 14:16:16;;;;;;;5.97;3.23;;;;;;;;;;4958106;28;20052;-77
2021/07/22 14:18:41;;;;;;;6.80;3.57;;;;;;;;;;4958197;28;20121;-77
2021/07/22 14:21:07;;;;;;;7.57;3.47;;;;;;;;;;4957982;28;20110;-78
2021/07/22 14:23:32;;;;;;;6.33;3.50;;;;;;;;;;4958073;28;20049;-77
2021/07/22 14:25:58;;;;;;;6.70;3.30;;;;;;;;;;4974347;28;20038;-77
2021/07/22 14:28:24;;;;;;;6.70;3.43;;;;;;;;;;4958203;28;20027;-77
2021/07/22 14:30:49;;;;;;;6.03;3.33;;;;;;;;;;4957907;28;20031;-77
2021/07/22 14:33:15;;;;;;;7.57;3.57;;;;;;;;;;4973958;28;20594;-77
2021/07/22 14:35:41;;;;;;;5.78;2.92;;;;;;;;;;4974264;28;20066;-77
2021/07/22 14:38:06;;;;;;;6.03;3.47;;;;;;;;;;4973932;28;20035;-78
2021/07/22 14:40:31;;;;;;;6.63;3.60;;;;;;;;;;4941807;28;20121;-78
2021/07/22 14:42:57;;;;;;;7.47;3.50;;;;;;;;;;4957793;28;20022;-77
2021/07/22 14:45:22;;;;;;;6.43;3.13;;;;;;;;;;4957726;28;20038;-77